Time;durP1;ratioP1;P1;durP2;ratioP2;P2;SDS_P1;SDS_P2;PMS_P1;PMS_P2;Temp;Humidity;BMP_temperature;BMP_pressure;BME280_temperature;BME280_humidity;BME280_pressure;Samples;Min_cycle;Max_cycle;Signal;HPM_P1;HPM_P2
2024/03/17 00:01:37;;;;;;;18.17;16.73;;;7.60;99.90;;;;;;4964703;28;20210;-78
2024/03/17 00:04:03;;;;;;;18.73;17.20;;;7.60;99.90;;;;;;4966843;28;20229;-79
2024/03/17 00:06:31;;;;;;;17.73;16.33;;;7.50;99.90;;;;;;4963302;28;20206;-79
2024/03/17 00:08:57;;;;;;;16.70;15.33;;;7.50;99.90;;;;;;4969035;28;20229;-79
2024/03/17 00:11:24;;;;;;;17.63;16.23;;;7.40;99.90;;;;;;4964327;28;20293;-78
2024/03/17 00:13:51;;;;;;;18.03;16.63;;;7.40;99.90;;;;;;4960360;28;20606;-79
2024/03/17 00:16:18;;;;;;;19.80;18.10;;;7.40;99.90;;;;;;4964432;28;20286;-79
2024/03/17 00:18:44;;;;;;;20.77;18.53;;;7.40;99.90;;;;;;4967345;28;20194;-78
2024/03/17 00:21:11;;;;;;;18.40;16.97;;;7.30;99.90;;;;;;4955662;28;20293;-79
2024/03/17 00:23:38;;;;;;;17.80;16.50;;;7.40;99.90;;;;;;4972762;28;20205;-78
2024/03/17 00:26:05;;;;;;;18.83;17.40;;;7.30;99.90;;;;;;4967507;28;20740;-78
2024/03/17 00:28:31;;;;;;;19.90;18.07;;;7.30;99.90;;;;;;4963424;28;20668;-79
2024/03/17 00:30:57;;;;;;;18.30;16.73;;;7.30;99.90;;;;;;4971060;28;20226;-78
2024/03/17 00:33:24;;;;;;;19.17;17.63;;;7.30;99.90;;;;;;4955035;28;20748;-78
2024/03/17 00:35:51;;;;;;;18.77;17.27;;;7.30;99.90;;;;;;4955469;28;20194;-79
2024/03/17 00:38:17;;;;;;;18.57;17.07;;;7.30;99.90;;;;;;4968324;28;20204;-79
2024/03/17 00:40:47;;;;;;;19.80;18.20;;;7.20;99.90;;;;;;4961349;28;20195;-78
2024/03/17 00:43:13;;;;;;;19.57;17.97;;;7.20;99.90;;;;;;4965349;28;20249;-78
2024/03/17 00:45:39;;;;;;;21.60;19.67;;;7.20;99.90;;;;;;4965527;28;20206;-78
2024/03/17 00:48:06;;;;;;;20.60;18.80;;;7.20;99.90;;;;;;4961331;28;20240;-78
2024/03/17 00:50:33;;;;;;;20.03;18.43;;;7.20;99.90;;;;;;4962130;28;20655;-79
2024/03/17 00:52:59;;;;;;;19.87;18.27;;;7.20;99.90;;;;;;4957352;28;20229;-78
2024/03/17 00:55:26;;;;;;;19.00;17.40;;;7.10;99.90;;;;;;4962688;28;20195;-78
2024/03/17 00:57:54;;;;;;;19.57;17.90;;;7.10;99.90;;;;;;4957576;28;20245;-78
2024/03/17 01:00:21;;;;;;;19.40;17.77;;;7.00;99.90;;;;;;4965684;28;20209;-78
2024/03/17 01:02:47;;;;;;;17.90;16.50;;;7.00;99.90;;;;;;4957232;28;20241;-78
2024/03/17 01:05:13;;;;;;;18.43;17.00;;;7.00;99.90;;;;;;4963663;28;20746;-78
2024/03/17 01:07:40;;;;;;;18.07;16.67;;;7.00;99.90;;;;;;4955591;28;20206;-78
2024/03/17 01:10:08;;;;;;;19.33;17.83;;;7.00;99.90;;;;;;4961405;28;20225;-79
2024/03/17 01:12:35;;;;;;;18.70;17.30;;;7.00;99.90;;;;;;4962035;28;20790;-79
2024/03/17 01:15:05;;;;;;;19.20;17.70;;;7.10;99.90;;;;;;4964769;28;20669;-79
2024/03/17 01:17:31;;;;;;;18.80;17.30;;;7.20;99.90;;;;;;4965921;28;20724;-78
2024/03/17 01:19:59;;;;;;;18.10;16.60;;;7.20;99.90;;;;;;4973850;28;20189;-78
2024/03/17 01:22:24;;;;;;;17.23;15.93;;;7.30;99.90;;;;;;4953793;28;20246;-79
2024/03/17 01:24:51;;;;;;;16.30;15.13;;;7.40;99.90;;;;;;4958740;28;20228;-79
2024/03/17 01:27:17;;;;;;;16.33;15.13;;;7.50;99.90;;;;;;4960272;28;20273;-79
2024/03/17 01:29:44;;;;;;;18.37;17.03;;;7.50;99.90;;;;;;4961034;28;20226;-78
2024/03/17 01:32:11;;;;;;;19.70;18.20;;;7.50;99.90;;;;;;4964858;28;20704;-79
2024/03/17 01:34:38;;;;;;;18.43;17.03;;;7.50;99.90;;;;;;4956639;28;20214;-79
2024/03/17 01:37:04;;;;;;;19.57;18.03;;;7.60;99.90;;;;;;4958945;28;20202;-79
2024/03/17 01:39:32;;;;;;;19.73;18.13;;;7.60;99.90;;;;;;4962592;28;20249;-78
2024/03/17 01:41:59;;;;;;;18.83;17.43;;;7.50;99.90;;;;;;4956294;28;20280;-79
2024/03/17 01:44:27;;;;;;;19.90;18.20;;;7.50;99.90;;;;;;4964652;28;20209;-79
2024/03/17 01:46:54;;;;;;;19.73;18.13;;;7.40;99.90;;;;;;4956182;28;20281;-79
2024/03/17 01:49:22;;;;;;;19.53;17.90;;;7.40;99.90;;;;;;4966265;28;20330;-78
2024/03/17 01:51:49;;;;;;;19.10;17.47;;;7.40;99.90;;;;;;4964663;28;20226;-78
2024/03/17 01:54:16;;;;;;;19.37;17.87;;;7.30;99.90;;;;;;4965793;28;20202;-78
2024/03/17 01:56:44;;;;;;;19.20;17.50;;;7.40;99.90;;;;;;4968247;28;20198;-78
2024/03/17 01:59:10;;;;;;;19.33;17.80;;;7.40;99.90;;;;;;4957261;28;20301;-78
2024/03/17 02:01:37;;;;;;;18.80;17.30;;;7.50;99.90;;;;;;4960231;28;20218;-78
2024/03/17 02:04:04;;;;;;;18.70;17.17;;;7.50;99.90;;;;;;4960846;28;20226;-79
2024/03/17 02:06:33;;;;;;;18.80;17.40;;;7.40;99.90;;;;;;4958642;28;20662;-79
2024/03/17 02:08:59;;;;;;;18.20;16.80;;;7.40;99.90;;;;;;4965538;28;20246;-79
2024/03/17 02:11:28;;;;;;;20.00;18.40;;;7.40;99.90;;;;;;4966592;28;20304;-79
2024/03/17 02:13:55;;;;;;;20.43;18.83;;;7.40;99.90;;;;;;4967421;28;20198;-78
2024/03/17 02:16:22;;;;;;;18.07;16.70;;;7.50;99.90;;;;;;4959688;28;20229;-78
2024/03/17 02:18:47;;;;;;;19.53;17.80;;;7.50;99.90;;;;;;4960843;28;20265;-79
2024/03/17 02:21:15;;;;;;;18.83;17.10;;;7.50;99.90;;;;;;4952211;28;20246;-78
2024/03/17 02:23:43;;;;;;;18.80;17.30;;;7.40;99.90;;;;;;4958083;28;20637;-79
2024/03/17 02:26:10;;;;;;;19.40;17.73;;;7.40;99.90;;;;;;4962342;28;20639;-78
2024/03/17 02:28:40;;;;;;;19.10;17.57;;;7.50;99.90;;;;;;4967464;28;20213;-78
2024/03/17 02:31:09;;;;;;;18.80;17.30;;;7.50;99.90;;;;;;4963077;28;20221;-78
2024/03/17 02:33:36;;;;;;;19.20;17.60;;;7.50;99.90;;;;;;4952686;28;20238;-79
2024/03/17 02:36:03;;;;;;;18.70;17.30;;;7.60;99.90;;;;;;4967813;28;20198;-78
2024/03/17 02:41:17;;;;;;;17.60;16.30;;;7.60;99.90;;;;;;4957564;28;20280;-79
2024/03/17 02:43:43;;;;;;;17.67;16.37;;;7.60;99.90;;;;;;4959924;28;20265;-78
2024/03/17 02:46:12;;;;;;;18.30;17.00;;;7.60;99.90;;;;;;4961143;28;20261;-78
2024/03/17 02:48:44;;;;;;;19.13;17.37;;;7.60;99.90;;;;;;4961168;28;20198;-79
2024/03/17 02:51:12;;;;;;;17.60;16.30;;;7.60;99.90;;;;;;4967793;28;20224;-79
2024/03/17 02:53:40;;;;;;;18.23;16.73;;;7.60;99.90;;;;;;4961772;28;20722;-79
2024/03/17 02:56:07;;;;;;;18.20;16.90;;;7.70;99.90;;;;;;4967159;28;20296;-79
2024/03/17 02:58:36;;;;;;;17.67;16.37;;;7.70;99.90;;;;;;4964977;28;20314;-79
2024/03/17 03:01:04;;;;;;;18.70;17.20;;;7.70;99.90;;;;;;4960430;28;20186;-79
2024/03/17 03:03:31;;;;;;;18.53;16.90;;;7.70;99.90;;;;;;4957847;28;20290;-79
2024/03/17 03:05:58;;;;;;;17.30;16.10;;;7.70;99.90;;;;;;4960393;28;20287;-79
2024/03/17 03:08:25;;;;;;;17.93;16.43;;;7.70;99.90;;;;;;4955689;28;20191;-79
2024/03/17 03:10:52;;;;;;;17.57;16.27;;;7.70;99.90;;;;;;4956153;28;20648;-78
2024/03/17 03:13:20;;;;;;;17.50;16.20;;;7.70;99.90;;;;;;4966304;28;20201;-79
2024/03/17 03:15:49;;;;;;;17.20;15.90;;;7.70;99.90;;;;;;4965200;28;20285;-78
2024/03/17 03:18:16;;;;;;;17.57;16.30;;;7.70;99.90;;;;;;4964632;28;20687;-79
2024/03/17 03:20:43;;;;;;;16.87;15.67;;;7.70;99.90;;;;;;4967388;28;20225;-79
2024/03/17 03:23:10;;;;;;;17.97;16.57;;;7.70;99.90;;;;;;4972897;28;20217;-79
2024/03/17 03:25:36;;;;;;;17.37;16.17;;;7.60;99.90;;;;;;4958741;28;20288;-79
2024/03/17 03:28:03;;;;;;;15.80;14.70;;;7.60;99.90;;;;;;4956766;28;20195;-79
2024/03/17 03:30:30;;;;;;;16.07;14.97;;;7.50;99.90;;;;;;4967062;28;20292;-79
2024/03/17 03:32:59;;;;;;;16.23;15.13;;;7.50;99.90;;;;;;4956103;28;20241;-79
2024/03/17 03:35:29;;;;;;;17.13;15.70;;;7.50;99.90;;;;;;4960410;28;20670;-79
2024/03/17 03:37:56;;;;;;;18.03;16.73;;;7.50;99.90;;;;;;4968169;28;20282;-79
2024/03/17 03:40:23;;;;;;;18.00;16.57;;;7.50;99.90;;;;;;4956380;28;20206;-78
2024/03/17 03:42:49;;;;;;;16.80;15.60;;;7.60;99.90;;;;;;4954264;28;20234;-79
2024/03/17 03:45:16;;;;;;;16.77;15.53;;;7.50;99.90;;;;;;4964186;28;20222;-78
2024/03/17 03:47:44;;;;;;;17.10;15.80;;;7.50;99.90;;;;;;4963679;28;20213;-79
2024/03/17 03:50:13;;;;;;;17.13;15.67;;;7.50;99.90;;;;;;4969773;28;20222;-79
2024/03/17 03:52:41;;;;;;;16.40;15.27;;;7.50;99.90;;;;;;4970166;28;20221;-79
2024/03/17 03:55:10;;;;;;;15.80;14.70;;;7.60;99.90;;;;;;4971485;28;20198;-79
2024/03/17 03:57:37;;;;;;;15.90;14.80;;;7.60;99.90;;;;;;4964467;28;20209;-78
2024/03/17 04:00:12;;;;;;;17.53;16.33;;;7.60;99.90;;;;;;4971955;28;20575;-79
2024/03/17 04:02:39;;;;;;;17.47;16.17;;;7.60;99.90;;;;;;4959971;28;20222;-79
2024/03/17 04:05:06;;;;;;;16.87;15.67;;;7.60;99.90;;;;;;4974140;28;20257;-79
2024/03/17 04:07:34;;;;;;;17.47;16.23;;;7.60;99.90;;;;;;4957270;28;20253;-79
2024/03/17 04:10:01;;;;;;;18.37;16.97;;;7.60;99.90;;;;;;4973885;28;20268;-79
2024/03/17 04:12:30;;;;;;;16.90;15.60;;;7.60;99.90;;;;;;4958908;28;20223;-79
2024/03/17 04:14:57;;;;;;;17.50;16.10;;;7.60;99.90;;;;;;4964700;28;20247;-79
2024/03/17 04:17:24;;;;;;;17.20;16.00;;;7.60;99.90;;;;;;4957636;28;20214;-79
2024/03/17 04:19:51;;;;;;;17.37;15.87;;;7.60;99.90;;;;;;4962958;28;20230;-79
2024/03/17 04:22:19;;;;;;;17.13;15.83;;;7.60;99.90;;;;;;4957701;28;20652;-79
2024/03/17 04:24:48;;;;;;;16.60;15.40;;;7.60;99.90;;;;;;4964657;28;20480;-79
2024/03/17 04:27:15;;;;;;;16.50;15.30;;;7.60;99.90;;;;;;4959148;28;20682;-78
2024/03/17 04:29:42;;;;;;;17.43;16.13;;;7.50;99.90;;;;;;4969675;28;20305;-79
2024/03/17 04:32:11;;;;;;;16.97;15.57;;;7.50;99.90;;;;;;4959157;28;20225;-78
2024/03/17 04:34:38;;;;;;;15.70;14.60;;;7.40;99.90;;;;;;4972756;28;20202;-79
2024/03/17 04:37:05;;;;;;;17.27;15.90;;;7.40;99.90;;;;;;4956921;28;20625;-79
2024/03/17 04:39:32;;;;;;;17.47;16.17;;;7.40;99.90;;;;;;4960594;28;20209;-78
2024/03/17 04:42:00;;;;;;;16.80;15.50;;;7.40;99.90;;;;;;4947703;28;20436;-81
2024/03/17 04:44:27;;;;;;;18.67;17.27;;;7.40;99.90;;;;;;4964333;28;20282;-79
2024/03/17 04:46:56;;;;;;;18.37;16.90;;;7.40;99.90;;;;;;4963775;28;20202;-79
2024/03/17 04:49:22;;;;;;;18.80;17.23;;;7.40;99.90;;;;;;4971393;28;20206;-78
2024/03/17 04:51:49;;;;;;;17.83;16.53;;;7.40;99.90;;;;;;4968791;28;20265;-78
2024/03/17 04:54:15;;;;;;;19.33;17.67;;;7.40;99.90;;;;;;4970703;28;20201;-79
2024/03/17 04:56:42;;;;;;;18.80;17.20;;;7.50;99.90;;;;;;4970326;28;20210;-78
2024/03/17 04:59:09;;;;;;;17.37;16.17;;;7.40;99.90;;;;;;4970655;28;20195;-80
2024/03/17 05:01:36;;;;;;;17.50;16.27;;;7.50;99.90;;;;;;4977120;28;20214;-78
2024/03/17 05:04:04;;;;;;;17.00;15.80;;;7.50;99.90;;;;;;4975221;28;20191;-79
2024/03/17 05:06:30;;;;;;;15.23;14.13;;;7.50;99.90;;;;;;4973919;28;20194;-81
2024/03/17 05:08:58;;;;;;;16.67;15.17;;;7.50;99.90;;;;;;4946206;28;20227;-82
2024/03/17 05:11:24;;;;;;;18.10;16.50;;;7.40;99.90;;;;;;4955702;28;20238;-81
2024/03/17 05:13:51;;;;;;;16.40;15.10;;;7.50;99.90;;;;;;4956002;28;20202;-82
2024/03/17 05:16:22;;;;;;;17.33;15.83;;;7.50;99.90;;;;;;4955722;28;20203;-82
2024/03/17 05:18:49;;;;;;;18.17;16.57;;;7.60;99.90;;;;;;4956360;28;20195;-80
2024/03/17 05:21:16;;;;;;;16.40;15.20;;;7.70;99.90;;;;;;4957197;28;20273;-81
2024/03/17 05:23:43;;;;;;;17.73;16.33;;;7.70;99.90;;;;;;4955674;28;20242;-82
2024/03/17 05:26:10;;;;;;;17.30;15.90;;;7.70;99.90;;;;;;4952629;28;20285;-83
2024/03/17 05:28:37;;;;;;;17.17;15.73;;;7.70;99.90;;;;;;4947956;28;20246;-84
2024/03/17 05:31:04;;;;;;;17.13;15.83;;;7.70;99.90;;;;;;4955209;28;20218;-82
2024/03/17 05:33:32;;;;;;;17.00;15.60;;;7.70;99.90;;;;;;4948931;28;20229;-82
2024/03/17 05:36:02;;;;;;;17.63;15.97;;;7.70;99.90;;;;;;4951673;28;20294;-82
2024/03/17 05:38:30;;;;;;;17.63;16.07;;;7.70;99.90;;;;;;4945181;28;20217;-81
2024/03/17 05:40:59;;;;;;;18.13;16.57;;;7.70;99.90;;;;;;4957269;28;20246;-80
2024/03/17 05:43:27;;;;;;;16.57;15.37;;;7.70;99.90;;;;;;4959970;28;20202;-80
2024/03/17 05:45:55;;;;;;;18.93;17.23;;;7.70;99.90;;;;;;4965420;28;20277;-79
2024/03/17 05:48:22;;;;;;;19.00;17.50;;;7.70;99.90;;;;;;4973341;28;20669;-80
2024/03/17 05:50:50;;;;;;;17.47;16.07;;;7.70;99.90;;;;;;4972249;28;20305;-81
2024/03/17 05:53:17;;;;;;;17.10;15.80;;;7.70;99.90;;;;;;4956642;28;20557;-78
2024/03/17 05:55:45;;;;;;;17.23;15.87;;;7.80;99.90;;;;;;4968643;28;20285;-81
2024/03/17 05:58:12;;;;;;;18.27;16.73;;;7.70;99.90;;;;;;4968109;28;20218;-84
2024/03/17 06:00:40;;;;;;;18.20;16.70;;;7.80;99.90;;;;;;4966479;28;20205;-81
2024/03/17 06:03:07;;;;;;;16.47;15.17;;;7.80;99.90;;;;;;4970269;28;20218;-79
2024/03/17 06:05:35;;;;;;;17.00;15.70;;;7.80;99.90;;;;;;4975086;28;20197;-79
2024/03/17 06:08:04;;;;;;;18.77;17.37;;;7.90;99.90;;;;;;4966576;28;20462;-80
2024/03/17 06:10:33;;;;;;;18.03;16.43;;;7.90;99.90;;;;;;4970070;28;20319;-80
2024/03/17 06:13:00;;;;;;;17.67;16.33;;;7.90;99.90;;;;;;4962740;28;20606;-82
2024/03/17 06:15:28;;;;;;;17.30;15.80;;;7.90;99.90;;;;;;4963957;28;20197;-81
2024/03/17 06:17:55;;;;;;;18.07;16.67;;;8.00;99.90;;;;;;4965604;28;20199;-81
2024/03/17 06:20:26;;;;;;;17.53;16.23;;;7.90;99.90;;;;;;4973278;28;20213;-82
2024/03/17 06:22:53;;;;;;;16.30;15.20;;;7.90;99.90;;;;;;4965227;28;20230;-81
2024/03/17 06:25:23;;;;;;;16.93;15.70;;;7.90;99.90;;;;;;4951357;28;20201;-82
2024/03/17 06:27:50;;;;;;;15.77;14.67;;;7.90;99.90;;;;;;4969240;28;20198;-81
2024/03/17 06:30:17;;;;;;;16.17;14.97;;;7.90;99.90;;;;;;4963220;28;20300;-81
2024/03/17 06:32:46;;;;;;;17.20;15.90;;;7.90;99.90;;;;;;4967627;28;20729;-82
2024/03/17 06:35:15;;;;;;;16.97;15.73;;;7.90;99.90;;;;;;4965959;28;20297;-82
2024/03/17 06:37:42;;;;;;;16.63;15.43;;;7.90;99.90;;;;;;4967574;28;20202;-81
2024/03/17 06:40:12;;;;;;;17.20;15.90;;;8.00;99.90;;;;;;4965435;28;20212;-81
2024/03/17 06:42:40;;;;;;;15.50;14.40;;;8.10;99.90;;;;;;4963863;28;20226;-82
2024/03/17 06:45:08;;;;;;;16.00;14.90;;;8.10;99.90;;;;;;4968331;28;20581;-81
2024/03/17 06:47:36;;;;;;;15.30;14.30;;;8.20;99.90;;;;;;4968763;28;20198;-82
2024/03/17 06:50:03;;;;;;;15.63;14.43;;;8.30;99.90;;;;;;4968698;28;20198;-81
2024/03/17 06:52:30;;;;;;;16.03;14.83;;;8.30;99.90;;;;;;4967473;28;20210;-83
2024/03/17 06:54:57;;;;;;;15.70;14.60;;;8.30;99.90;;;;;;4967591;28;20203;-83
2024/03/17 06:57:24;;;;;;;15.00;14.00;;;8.30;99.90;;;;;;4985116;28;20625;-83
2024/03/17 06:59:53;;;;;;;15.63;14.53;;;8.40;99.90;;;;;;4970392;28;20203;-82
2024/03/17 07:02:20;;;;;;;14.80;13.80;;;8.50;99.90;;;;;;4970285;28;20213;-81
2024/03/17 07:04:47;;;;;;;14.83;13.83;;;8.60;99.90;;;;;;4988494;28;20241;-79
2024/03/17 07:07:13;;;;;;;15.60;14.50;;;8.60;99.90;;;;;;4979942;28;20677;-80
2024/03/17 07:09:41;;;;;;;13.20;12.10;;;8.70;99.90;;;;;;4970133;28;20202;-79
2024/03/17 07:12:08;;;;;;;9.77;8.40;;;8.70;99.90;;;;;;4969067;28;20218;-79
2024/03/17 07:14:34;;;;;;;13.63;12.63;;;8.70;99.90;;;;;;4968624;28;20268;-79
2024/03/17 07:17:03;;;;;;;9.23;8.43;;;8.80;99.90;;;;;;4954874;28;20195;-80
2024/03/17 07:19:32;;;;;;;10.40;9.47;;;8.90;99.90;;;;;;4965219;28;20209;-83
2024/03/17 07:21:59;;;;;;;7.00;6.17;;;9.00;99.90;;;;;;4960713;28;20273;-78
2024/03/17 07:24:27;;;;;;;14.63;13.43;;;9.00;99.90;;;;;;4961919;28;20222;-80
2024/03/17 07:26:54;;;;;;;11.03;10.10;;;9.10;99.90;;;;;;4962377;28;20223;-79
2024/03/17 07:29:21;;;;;;;13.20;12.30;;;9.20;99.90;;;;;;4949273;28;20897;-79
2024/03/17 07:31:47;;;;;;;14.27;13.20;;;9.30;99.90;;;;;;4955454;28;20215;-79
2024/03/17 07:34:16;;;;;;;8.50;7.03;;;9.40;99.90;;;;;;4950452;28;20227;-82
2024/03/17 07:36:43;;;;;;;7.70;6.90;;;9.40;99.90;;;;;;4956761;28;20213;-82
2024/03/17 07:39:12;;;;;;;9.53;8.57;;;9.50;99.90;;;;;;4964243;28;20226;-82
2024/03/17 07:41:38;;;;;;;12.40;11.50;;;9.50;99.90;;;;;;4967407;28;20223;-82
2024/03/17 07:44:05;;;;;;;14.23;13.13;;;9.60;99.90;;;;;;4966496;28;20210;-78
2024/03/17 07:46:32;;;;;;;14.40;13.40;;;9.70;99.90;;;;;;4979448;28;20236;-78
2024/03/17 07:48:59;;;;;;;12.73;11.63;;;9.80;99.90;;;;;;4975703;28;20578;-78
2024/03/17 07:51:27;;;;;;;14.03;13.03;;;9.90;99.90;;;;;;4964077;28;20221;-82
2024/03/17 07:53:54;;;;;;;13.90;12.90;;;10.20;99.90;;;;;;4962071;28;20207;-82
2024/03/17 07:56:21;;;;;;;11.37;10.17;;;10.30;99.90;;;;;;4957535;28;20213;-78
2024/03/17 07:58:50;;;;;;;13.93;12.83;;;10.50;99.90;;;;;;4961170;28;20254;-78
2024/03/17 08:01:17;;;;;;;14.10;12.83;;;10.70;99.90;;;;;;4960107;28;20604;-80
2024/03/17 08:03:46;;;;;;;10.17;9.17;;;10.80;99.90;;;;;;4961792;28;20231;-78
2024/03/17 08:06:13;;;;;;;13.53;12.53;;;10.80;99.90;;;;;;4968232;28;20208;-80
2024/03/17 08:08:41;;;;;;;10.47;9.37;;;11.10;99.90;;;;;;4960529;28;20348;-78
2024/03/17 08:11:08;;;;;;;11.60;10.40;;;11.10;99.90;;;;;;4965995;28;20674;-78
2024/03/17 08:13:35;;;;;;;11.70;7.67;;;11.20;99.90;;;;;;4966280;28;20199;-77
2024/03/17 08:16:05;;;;;;;13.57;12.23;;;11.30;99.90;;;;;;4959425;28;20229;-78
2024/03/17 08:18:32;;;;;;;12.17;10.90;;;11.40;99.90;;;;;;4962484;28;20315;-78
2024/03/17 08:21:01;;;;;;;18.47;16.70;;;11.50;99.90;;;;;;4959739;28;20215;-78
2024/03/17 08:23:28;;;;;;;17.37;15.87;;;11.70;99.90;;;;;;4968289;28;20221;-77
2024/03/17 08:25:57;;;;;;;17.00;15.40;;;11.80;99.90;;;;;;4960364;28;20198;-78
2024/03/17 08:28:25;;;;;;;19.37;17.73;;;11.80;99.90;;;;;;4969524;28;20684;-79
2024/03/17 08:30:53;;;;;;;18.67;17.07;;;11.90;99.90;;;;;;4954944;28;20769;-79
2024/03/17 08:33:20;;;;;;;17.77;16.30;;;12.00;99.90;;;;;;4954318;28;20257;-79
2024/03/17 08:35:54;;;;;;;15.67;14.17;;;12.10;99.90;;;;;;4955367;28;20554;-78
2024/03/17 08:38:22;;;;;;;14.90;13.60;;;12.20;99.90;;;;;;4961661;28;20746;-80
2024/03/17 08:40:49;;;;;;;14.80;13.10;;;12.30;99.90;;;;;;4953757;28;20197;-82
2024/03/17 08:43:17;;;;;;;10.40;8.17;;;12.60;99.90;;;;;;4956516;28;20202;-79
2024/03/17 08:45:44;;;;;;;10.00;8.97;;;12.70;99.90;;;;;;4956464;28;20203;-79
2024/03/17 08:48:11;;;;;;;13.00;9.77;;;12.70;99.90;;;;;;4960432;28;20199;-81
2024/03/17 08:50:39;;;;;;;16.50;15.03;;;12.70;99.90;;;;;;4965058;28;20199;-78
2024/03/17 08:53:06;;;;;;;11.37;9.03;;;12.80;99.90;;;;;;4965370;28;20217;-79
2024/03/17 08:55:33;;;;;;;13.23;9.53;;;12.90;99.90;;;;;;4969007;28;20207;-79
2024/03/17 08:58:00;;;;;;;15.80;14.23;;;12.90;99.90;;;;;;4965155;28;20579;-79
2024/03/17 09:00:30;;;;;;;14.70;13.33;;;13.10;99.90;;;;;;4969058;28;20306;-79
2024/03/17 09:02:57;;;;;;;17.97;14.97;;;13.30;99.90;;;;;;4965911;28;20221;-79
2024/03/17 09:05:23;;;;;;;15.47;14.07;;;13.50;99.90;;;;;;4964834;28;20214;-79
2024/03/17 09:07:50;;;;;;;16.10;14.37;;;13.50;99.90;;;;;;4969301;28;20209;-79
2024/03/17 09:10:17;;;;;;;16.17;12.50;;;13.50;99.90;;;;;;4962736;28;20271;-79
2024/03/17 09:12:44;;;;;;;11.47;9.90;;;13.50;99.90;;;;;;4965042;28;20243;-79
2024/03/17 09:15:11;;;;;;;14.27;10.83;;;13.70;99.90;;;;;;4955231;28;20250;-78
2024/03/17 09:17:40;;;;;;;15.57;14.27;;;13.70;99.90;;;;;;4963292;28;20195;-78
2024/03/17 09:20:11;;;;;;;16.23;14.73;;;13.80;99.90;;;;;;4967885;28;20200;-79
2024/03/17 09:22:39;;;;;;;13.60;12.30;;;13.80;99.90;;;;;;4956731;28;20687;-79
2024/03/17 09:25:08;;;;;;;12.73;11.57;;;14.00;99.90;;;;;;4967834;28;20987;-79
2024/03/17 09:27:36;;;;;;;13.23;11.90;;;14.20;99.90;;;;;;4957074;28;20209;-79
2024/03/17 09:30:06;;;;;;;13.10;11.80;;;14.20;99.90;;;;;;4966448;28;20199;-79
2024/03/17 09:32:32;;;;;;;13.53;12.13;;;14.30;99.90;;;;;;4955945;28;20314;-79
2024/03/17 09:35:00;;;;;;;13.83;12.63;;;14.40;99.90;;;;;;4965545;28;20319;-79
2024/03/17 09:37:28;;;;;;;12.83;11.53;;;14.50;99.90;;;;;;4958264;28;20214;-79
2024/03/17 09:39:57;;;;;;;14.40;12.73;;;14.50;99.90;;;;;;4959022;28;20204;-78
2024/03/17 09:42:24;;;;;;;17.37;10.87;;;14.30;99.90;;;;;;4961997;28;20239;-79
2024/03/17 09:44:53;;;;;;;12.23;11.03;;;14.40;99.90;;;;;;4964095;28;20210;-78
2024/03/17 09:47:21;;;;;;;11.50;10.60;;;14.40;99.90;;;;;;4968944;28;20204;-79
2024/03/17 09:49:49;;;;;;;11.47;10.43;;;14.50;99.90;;;;;;4964131;28;20588;-79
2024/03/17 09:52:22;;;;;;;11.57;10.37;;;14.60;99.90;;;;;;4969185;28;20232;-78
2024/03/17 09:54:54;;;;;;;12.80;11.67;;;14.70;99.90;;;;;;4963874;28;20289;-79
2024/03/17 09:57:23;;;;;;;12.63;11.53;;;14.70;99.90;;;;;;4968341;28;20208;-79
2024/03/17 09:59:54;;;;;;;13.83;12.53;;;14.60;99.90;;;;;;4963817;28;20285;-78
2024/03/17 10:02:22;;;;;;;11.97;10.87;;;14.40;99.90;;;;;;4967419;28;20221;-79
2024/03/17 10:04:49;;;;;;;10.73;9.63;;;14.50;99.90;;;;;;4962345;28;20284;-79
2024/03/17 10:07:16;;;;;;;11.20;10.20;;;14.40;99.90;;;;;;4969087;28;20209;-78
2024/03/17 10:09:45;;;;;;;12.47;11.30;;;14.40;99.90;;;;;;4967167;28;20219;-79
2024/03/17 10:12:28;;;;;;;11.60;10.43;;;14.50;99.90;;;;;;4953903;28;20226;-81
2024/03/17 10:15:01;;;;;;;11.70;10.63;;;14.60;99.90;;;;;;4963930;28;20201;-79
2024/03/17 10:17:32;;;;;;;11.13;10.03;;;14.80;99.90;;;;;;4961132;28;20210;-79
2024/03/17 10:20:17;;;;;;;12.60;11.50;;;14.90;99.90;;;;;;4967525;28;20251;-79
2024/03/17 10:23:00;;;;;;;14.57;12.20;;;14.90;99.90;;;;;;4961463;28;20724;-79
2024/03/17 10:25:30;;;;;;;11.20;10.07;;;15.10;99.90;;;;;;4961891;28;20214;-79
2024/03/17 10:27:57;;;;;;;10.43;9.30;;;15.50;99.90;;;;;;4963408;28;20613;-79
2024/03/17 10:30:26;;;;;;;11.70;10.57;;;15.60;99.90;;;;;;4969219;28;20206;-80
2024/03/17 10:32:54;;;;;;;11.83;10.63;;;15.80;99.90;;;;;;4951678;28;20613;-79
2024/03/17 10:35:32;;;;;;;9.07;7.70;;;16.00;99.90;;;;;;4960536;28;20234;-80
2024/03/17 10:38:00;;;;;;;7.83;5.50;;;16.20;99.90;;;;;;4966418;28;20269;-77
2024/03/17 10:40:30;;;;;;;10.30;9.30;;;16.40;99.90;;;;;;4974786;28;20199;-77
2024/03/17 10:42:59;;;;;;;10.70;7.90;;;16.50;99.90;;;;;;4975284;28;20221;-77
2024/03/17 10:45:26;;;;;;;10.67;9.70;;;16.50;99.90;;;;;;4961931;28;20234;-78
2024/03/17 10:47:54;;;;;;;11.57;10.63;;;16.40;99.90;;;;;;4965780;28;20203;-78
2024/03/17 10:50:22;;;;;;;9.40;8.50;;;16.40;99.90;;;;;;4980946;28;20259;-78
2024/03/17 10:52:50;;;;;;;10.00;9.10;;;16.50;99.90;;;;;;4979385;28;20712;-78
2024/03/17 10:55:25;;;;;;;10.73;9.77;;;16.50;99.90;;;;;;4974251;28;20685;-78
2024/03/17 10:57:57;;;;;;;8.20;7.50;;;16.50;99.90;;;;;;4979903;28;20213;-77
2024/03/17 11:00:29;;;;;;;8.33;7.53;;;16.60;99.90;;;;;;4974209;28;20211;-78
2024/03/17 11:02:56;;;;;;;10.87;9.87;;;16.60;99.90;;;;;;4981136;28;20249;-78
2024/03/17 11:05:25;;;;;;;11.13;9.90;;;16.40;99.90;;;;;;4977190;28;20209;-78
2024/03/17 11:07:54;;;;;;;9.63;8.83;;;16.40;99.90;;;;;;4983303;28;20211;-78
2024/03/17 11:10:23;;;;;;;9.93;9.07;;;16.50;99.90;;;;;;4976158;28;20204;-78
2024/03/17 11:12:53;;;;;;;8.30;7.50;;;16.40;99.90;;;;;;4971877;28;20206;-77
2024/03/17 11:15:40;;;;;;;8.70;8.10;;;16.40;99.90;;;;;;4969050;28;20202;-77
2024/03/17 11:18:41;;;;;;;8.47;7.70;;;16.40;99.90;;;;;;4964915;28;20677;-77
2024/03/17 11:21:21;;;;;;;3.40;2.80;;;16.40;99.90;;;;;;4960406;28;20659;-77
2024/03/17 11:24:01;;;;;;;3.90;2.83;;;16.40;99.90;;;;;;4975183;28;20228;-77
2024/03/17 11:26:35;;;;;;;3.67;2.77;;;16.50;99.90;;;;;;4981212;28;20198;-77
2024/03/17 11:29:06;;;;;;;5.40;3.03;;;16.60;99.90;;;;;;4969575;28;20273;-78
2024/03/17 11:31:46;;;;;;;3.63;2.60;;;16.60;99.90;;;;;;4968087;28;20231;-80
2024/03/17 11:34:39;;;;;;;4.27;2.70;;;16.60;99.90;;;;;;4964932;28;20277;-80
2024/03/17 11:37:07;;;;;;;2.97;2.53;;;16.60;99.90;;;;;;4953223;28;20194;-80
2024/03/17 11:39:55;;;;;;;4.87;2.60;;;16.70;99.90;;;;;;4966338;28;20269;-80
2024/03/17 11:42:22;;;;;;;2.83;2.37;;;16.70;99.90;;;;;;4962779;28;20233;-81
2024/03/17 11:45:07;;;;;;;2.60;2.40;;;16.80;99.90;;;;;;4962773;28;20194;-81
2024/03/17 11:47:34;;;;;;;3.43;2.40;;;16.80;99.90;;;;;;4963648;28;20228;-80
2024/03/17 11:50:04;;;;;;;3.17;2.30;;;16.90;99.90;;;;;;4961819;28;20270;-81
2024/03/17 11:52:30;;;;;;;2.77;2.10;;;17.00;99.90;;;;;;4967241;28;20569;-80
2024/03/17 11:54:57;;;;;;;2.47;2.23;;;17.00;99.90;;;;;;4961640;28;20282;-81
2024/03/17 11:57:29;;;;;;;3.20;2.53;;;17.00;99.90;;;;;;4965545;28;20198;-83
2024/03/17 11:59:57;;;;;;;3.93;2.33;;;17.00;99.90;;;;;;4964798;28;20199;-82
2024/03/17 12:02:26;;;;;;;4.13;2.40;;;17.00;99.90;;;;;;4960431;28;20227;-78
2024/03/17 12:04:54;;;;;;;2.37;2.20;;;16.90;99.90;;;;;;4969099;28;20199;-80
2024/03/17 12:07:23;;;;;;;4.67;2.37;;;16.80;99.90;;;;;;4964943;28;20205;-79
2024/03/17 12:09:51;;;;;;;3.43;2.40;;;16.80;99.90;;;;;;4965655;28;20282;-80
2024/03/17 12:12:19;;;;;;;5.33;2.60;;;16.90;99.90;;;;;;4971685;28;20320;-80
2024/03/17 12:14:46;;;;;;;3.13;2.30;;;17.00;99.90;;;;;;4958943;28;20235;-80
2024/03/17 12:17:13;;;;;;;5.13;2.07;;;17.10;99.90;;;;;;4961544;28;20222;-79
2024/03/17 12:19:45;;;;;;;3.47;2.20;;;17.10;99.90;;;;;;4967642;28;20300;-79
2024/03/17 12:22:16;;;;;;;2.77;2.47;;;16.90;99.90;;;;;;4966154;28;20219;-81
2024/03/17 12:24:46;;;;;;;3.10;2.20;;;16.90;99.90;;;;;;4968680;28;20199;-79
2024/03/17 12:27:17;;;;;;;3.83;2.30;;;17.00;99.90;;;;;;4968116;28;20653;-82
2024/03/17 12:29:44;;;;;;;3.00;2.20;;;16.90;99.90;;;;;;4976919;28;20228;-80
2024/03/17 12:32:13;;;;;;;4.37;2.43;;;16.90;99.90;;;;;;4958574;28;20240;-82
2024/03/17 12:34:42;;;;;;;2.30;2.10;;;16.90;99.90;;;;;;4954520;28;20568;-81
2024/03/17 12:37:14;;;;;;;2.47;2.30;;;16.80;99.90;;;;;;4946508;28;20191;-81
2024/03/17 12:39:43;;;;;;;3.33;2.30;;;16.80;99.90;;;;;;4953758;28;20202;-81
2024/03/17 12:42:10;;;;;;;4.40;2.20;;;16.90;99.90;;;;;;4965940;28;20656;-81
2024/03/17 12:44:41;;;;;;;5.07;2.60;;;16.90;99.90;;;;;;4965909;28;20206;-81
2024/03/17 12:47:08;;;;;;;2.73;2.43;;;16.80;99.90;;;;;;4963275;28;20198;-81